Time;durP1;ratioP1;P1;durP2;ratioP2;P2;SDS_P1;SDS_P2;PMS_P1;PMS_P2;Temp;Humidity;BMP_temperature;BMP_pressure;BME280_temperature;BME280_humidity;BME280_pressure;Samples;Min_cycle;Max_cycle;Signal;HPM_P1;HPM_P2
2022/04/22 00:00:10;;;;;;;5.18;2.20;;;10.20;99.90;;;;;;6249384;22;20024;-83
2022/04/22 00:02:36;;;;;;;3.97;2.17;;;9.30;99.90;;;;;;6277007;22;20062;-83
2022/04/22 00:05:03;;;;;;;4.38;2.40;;;9.30;99.90;;;;;;6276870;22;20020;-83
2022/04/22 00:07:28;;;;;;;3.65;1.73;;;9.20;99.90;;;;;;6277234;22;20020;-83
2022/04/22 00:09:55;;;;;;;3.28;2.03;;;9.20;99.90;;;;;;6277231;22;20129;-83
2022/04/22 00:12:21;;;;;;;4.78;1.98;;;9.80;99.90;;;;;;6276987;22;20028;-83
2022/04/22 00:14:48;;;;;;;5.30;2.83;;;9.20;99.90;;;;;;6276546;22;20071;-83
2022/04/22 00:17:14;;;;;;;4.32;2.30;;;9.50;99.90;;;;;;6249224;22;20054;-83
2022/04/22 00:19:40;;;;;;;7.97;2.65;;;9.20;99.90;;;;;;6224363;22;20019;-83
2022/04/22 00:22:05;;;;;;;3.75;2.25;;;9.50;99.90;;;;;;6276886;22;20372;-83
2022/04/22 00:24:31;;;;;;;4.85;2.25;;;9.60;99.90;;;;;;6276542;22;20384;-82
2022/04/22 00:26:57;;;;;;;4.47;2.35;;;9.10;99.90;;;;;;6249105;22;20081;-83
2022/04/22 00:29:23;;;;;;;6.03;2.00;;;9.70;99.90;;;;;;6276321;22;20020;-83
2022/04/22 00:31:48;;;;;;;2.88;1.88;;;9.10;99.90;;;;;;6276231;22;20027;-83
2022/04/22 00:34:14;;;;;;;5.05;2.22;;;9.10;99.90;;;;;;6249266;22;20331;-83
2022/04/22 00:36:40;;;;;;;4.28;2.10;;;9.10;99.90;;;;;;6276526;22;20019;-83
2022/04/22 00:39:05;;;;;;;4.72;1.95;;;9.80;99.90;;;;;;6277036;22;20023;-82
2022/04/22 00:41:32;;;;;;;3.38;2.10;;;9.00;99.90;;;;;;6276970;22;20018;-83
2022/04/22 00:43:58;;;;;;;4.57;2.75;;;8.90;99.90;;;;;;6276528;22;20015;-82
2022/04/22 00:46:23;;;;;;;7.07;2.58;;;9.50;99.90;;;;;;6276290;22;20022;-83
2022/04/22 00:48:49;;;;;;;3.85;2.10;;;9.70;99.90;;;;;;6276935;22;20090;-83
2022/04/22 00:51:16;;;;;;;3.22;1.77;;;9.70;99.90;;;;;;6276427;22;20016;-83
2022/04/22 00:53:45;;;;;;;5.70;2.05;;;9.60;99.90;;;;;;6276815;22;20027;-83
2022/04/22 00:56:11;;;;;;;7.28;2.40;;;9.50;99.90;;;;;;6275921;22;20020;-83
2022/04/22 00:58:39;;;;;;;6.97;2.20;;;9.50;99.90;;;;;;6276684;22;20433;-83
2022/04/22 01:01:05;;;;;;;5.50;2.53;;;8.80;99.90;;;;;;6248933;22;20045;-83
2022/04/22 01:03:31;;;;;;;3.50;1.77;;;8.70;99.90;;;;;;6249116;22;20338;-83
2022/04/22 01:11:31;;;;;;;3.28;2.00;;;9.20;99.90;;;;;;6276512;22;20406;-83
2022/04/22 01:13:59;;;;;;;4.18;2.03;;;8.70;99.90;;;;;;6276250;22;20098;-83
2022/04/22 01:16:25;;;;;;;4.78;2.03;;;8.60;99.90;;;;;;6276646;22;20010;-83
2022/04/22 01:18:51;;;;;;;3.42;2.17;;;8.30;99.90;;;;;;6276530;22;20023;-83
2022/04/22 01:21:18;;;;;;;7.38;2.88;;;9.40;99.90;;;;;;6248874;22;20027;-82
2022/04/22 01:23:44;;;;;;;3.90;2.10;;;9.40;99.90;;;;;;6276528;22;20089;-82
2022/04/22 01:26:11;;;;;;;5.97;2.95;;;9.10;99.90;;;;;;6276758;22;20381;-82
2022/04/22 01:28:38;;;;;;;6.07;2.63;;;9.30;99.90;;;;;;6280649;22;20346;-82
2022/04/22 01:31:03;;;;;;;5.18;2.28;;;8.40;99.90;;;;;;6250337;22;20107;-83
2022/04/22 01:33:29;;;;;;;5.38;2.33;;;8.80;99.90;;;;;;6276499;22;20047;-82
2022/04/22 01:35:55;;;;;;;5.03;2.08;;;8.30;99.90;;;;;;6276362;22;20024;-82
2022/04/22 01:38:21;;;;;;;4.93;2.20;;;9.10;99.90;;;;;;6249292;22;20027;-82
2022/04/22 01:40:48;;;;;;;5.20;2.22;;;9.00;99.90;;;;;;6274636;22;20015;-83
2022/04/22 01:43:13;;;;;;;4.78;2.42;;;8.80;99.90;;;;;;6276121;22;20342;-82
2022/04/22 01:45:39;;;;;;;5.07;2.47;;;7.50;99.90;;;;;;6249204;22;20019;-82
2022/04/22 01:48:05;;;;;;;3.35;1.73;;;8.10;99.90;;;;;;6276480;22;20026;-83
2022/04/22 01:50:30;;;;;;;5.90;2.45;;;8.30;99.90;;;;;;6275948;22;20358;-82
2022/04/22 01:52:56;;;;;;;5.30;2.63;;;8.00;99.90;;;;;;6248939;22;20051;-83
2022/04/22 01:55:23;;;;;;;7.07;2.50;;;8.50;99.90;;;;;;6276175;22;20019;-83
2022/04/22 01:57:49;;;;;;;4.20;2.28;;;8.60;99.90;;;;;;6276408;22;20050;-83
2022/04/22 02:00:15;;;;;;;4.72;2.40;;;8.20;99.90;;;;;;6275533;22;20062;-82
2022/04/22 02:02:41;;;;;;;6.35;2.58;;;7.80;99.90;;;;;;6276381;22;20016;-83
2022/04/22 02:05:07;;;;;;;5.00;2.50;;;8.70;99.90;;;;;;6249282;22;20469;-83
2022/04/22 02:07:33;;;;;;;4.80;2.83;;;7.70;99.90;;;;;;6249177;22;20082;-82
2022/04/22 02:09:58;;;;;;;6.72;3.28;;;7.70;99.90;;;;;;6276313;22;20023;-82
2022/04/22 02:12:25;;;;;;;5.53;2.83;;;8.60;99.90;;;;;;6275865;22;20083;-82
2022/04/22 02:14:50;;;;;;;6.05;3.03;;;7.70;99.90;;;;;;6276223;22;20016;-83
2022/04/22 02:17:16;;;;;;;5.80;2.95;;;8.40;99.90;;;;;;6275899;22;20526;-82
2022/04/22 02:19:42;;;;;;;5.00;2.22;;;7.70;99.90;;;;;;6223640;22;20024;-83
2022/04/22 02:22:08;;;;;;;5.70;3.10;;;7.80;99.90;;;;;;6275991;22;20098;-83
2022/04/22 02:24:33;;;;;;;4.55;3.35;;;7.70;99.90;;;;;;6249055;22;20023;-83
2022/04/22 02:29:43;;;;;;;6.97;2.40;;;8.50;99.90;;;;;;6275316;22;20027;-83
2022/04/22 02:32:09;;;;;;;7.38;2.47;;;7.50;99.90;;;;;;6275963;22;20015;-83
2022/04/22 02:34:35;;;;;;;5.18;2.40;;;8.10;99.90;;;;;;6248877;22;20027;-83
2022/04/22 02:37:00;;;;;;;3.88;1.75;;;7.80;99.90;;;;;;6275836;22;20020;-83
2022/04/22 02:39:26;;;;;;;4.78;1.98;;;7.50;99.90;;;;;;6276357;22;20011;-83
2022/04/22 02:47:22;;;;;;;3.42;1.70;;;7.90;99.90;;;;;;6212177;23;20021;-84
2022/04/22 02:49:47;;;;;;;4.03;1.98;;;7.40;99.90;;;;;;6212271;23;20417;-82
2022/04/22 02:52:15;;;;;;;6.07;1.92;;;7.50;99.90;;;;;;6212301;23;20021;-83
2022/04/22 02:54:41;;;;;;;4.50;1.90;;;7.90;99.90;;;;;;6214219;23;20017;-83
2022/04/22 02:57:08;;;;;;;4.15;1.60;;;7.30;99.90;;;;;;6213593;23;20068;-83
2022/04/22 02:59:35;;;;;;;4.07;1.80;;;8.10;99.90;;;;;;6188684;23;20048;-83
2022/04/22 03:02:01;;;;;;;3.75;1.95;;;7.50;99.90;;;;;;6188573;23;20021;-83
2022/04/22 03:04:27;;;;;;;4.03;2.10;;;8.20;99.90;;;;;;6188849;23;20406;-83
2022/04/22 03:06:55;;;;;;;5.22;2.13;;;7.80;99.90;;;;;;6213910;23;20028;-83
2022/04/22 03:09:21;;;;;;;5.47;2.10;;;7.50;99.90;;;;;;6189111;23;20149;-83
2022/04/22 03:11:47;;;;;;;4.75;2.55;;;7.70;99.90;;;;;;6188912;23;20024;-83
2022/04/22 03:14:13;;;;;;;5.25;2.53;;;7.50;99.90;;;;;;6213646;23;20028;-82
2022/04/22 03:16:40;;;;;;;4.90;2.25;;;7.10;99.90;;;;;;6213881;23;20020;-82
2022/04/22 03:19:07;;;;;;;4.38;2.83;;;7.00;99.90;;;;;;6188486;23;20060;-83
2022/04/22 03:21:34;;;;;;;4.95;2.63;;;7.10;99.90;;;;;;6215743;22;20358;-82
2022/04/22 03:24:00;;;;;;;6.93;3.38;;;7.30;99.90;;;;;;6277361;22;20019;-83
2022/04/22 03:26:25;;;;;;;10.63;3.22;;;7.70;99.90;;;;;;6250809;22;20019;-83
2022/04/22 03:28:52;;;;;;;4.90;2.55;;;8.00;99.90;;;;;;6277411;22;20020;-82
2022/04/22 03:31:21;;;;;;;5.30;2.10;;;7.10;99.90;;;;;;6249900;22;20024;-83
2022/04/22 03:33:47;;;;;;;6.82;3.08;;;7.40;99.90;;;;;;6277567;22;20023;-83
2022/04/22 03:36:13;;;;;;;5.28;2.20;;;7.00;99.90;;;;;;6277107;22;20081;-85
2022/04/22 03:38:40;;;;;;;4.97;2.03;;;7.50;99.90;;;;;;6250100;22;20024;-83
2022/04/22 03:41:05;;;;;;;4.35;2.03;;;7.90;99.90;;;;;;6276929;22;20458;-82
2022/04/22 03:43:31;;;;;;;6.32;1.92;;;7.00;99.90;;;;;;6250220;22;20098;-83
2022/04/22 03:45:58;;;;;;;4.40;2.40;;;7.10;99.90;;;;;;6277058;22;20451;-82
2022/04/22 03:48:24;;;;;;;4.97;2.22;;;6.90;99.90;;;;;;6250033;22;20391;-83
2022/04/22 03:50:49;;;;;;;4.80;2.00;;;7.50;99.90;;;;;;6277169;22;20027;-83
2022/04/22 03:53:15;;;;;;;4.00;1.95;;;6.90;99.90;;;;;;6276998;22;20357;-83
2022/04/22 03:55:43;;;;;;;4.78;2.28;;;7.90;99.90;;;;;;6277060;22;20016;-83
2022/04/22 03:58:12;;;;;;;5.32;1.75;;;7.30;99.90;;;;;;6277057;22;20433;-83
2022/04/22 04:00:49;;;;;;;5.22;1.70;;;7.20;99.90;;;;;;6280044;22;20027;-83
2022/04/22 04:03:18;;;;;;;3.92;2.05;;;6.80;99.90;;;;;;6277317;22;20016;-83
2022/04/22 04:05:49;;;;;;;7.10;2.35;;;6.70;99.90;;;;;;6277425;22;20015;-83
2022/04/22 04:08:16;;;;;;;4.85;2.42;;;7.60;99.90;;;;;;6276751;22;20027;-83
2022/04/22 04:16:28;;;;;;;3.72;1.63;;;7.40;99.90;;;;;;6158414;23;20025;-83
2022/04/22 04:23:14;;;;;;;4.95;2.00;;;7.10;99.90;;;;;;6158231;23;20029;-83
2022/04/22 04:24:24;;;;;;;6.93;1.60;;;6.70;99.90;;;;;;6183497;23;20033;-82
2022/04/22 04:26:49;;;;;;;5.57;2.22;;;6.60;99.90;;;;;;6183058;23;20037;-83
2022/04/22 04:29:16;;;;;;;2.47;1.60;;;6.90;99.90;;;;;;6182785;23;20104;-82
2022/04/22 04:31:41;;;;;;;3.22;1.50;;;7.30;99.90;;;;;;6157894;23;20024;-83
2022/04/22 04:34:07;;;;;;;4.32;1.83;;;5.90;99.90;;;;;;6157900;23;20025;-83
2022/04/22 04:36:33;;;;;;;4.97;1.98;;;7.10;99.90;;;;;;6158239;23;20391;-84
2022/04/22 04:39:01;;;;;;;2.53;1.73;;;6.70;99.90;;;;;;6182962;23;20079;-83
2022/04/22 04:41:28;;;;;;;2.65;1.52;;;6.70;99.90;;;;;;6183146;23;20021;-84
2022/04/22 04:43:54;;;;;;;2.55;1.30;;;6.70;99.90;;;;;;6183147;23;20021;-83
2022/04/22 04:46:20;;;;;;;2.40;1.17;;;6.60;99.90;;;;;;6183013;23;20017;-85
2022/04/22 04:48:45;;;;;;;3.60;1.45;;;6.60;99.90;;;;;;6183005;23;20083;-85
2022/04/22 04:51:11;;;;;;;2.10;1.08;;;6.60;99.90;;;;;;6232942;22;20019;-84
2022/04/22 04:53:37;;;;;;;2.40;1.05;;;7.00;99.90;;;;;;6276484;22;20023;-84
2022/04/22 04:56:02;;;;;;;2.28;1.30;;;7.30;99.90;;;;;;6249238;22;20442;-84
2022/04/22 04:58:28;;;;;;;3.25;1.35;;;6.50;99.90;;;;;;6276238;22;20062;-84
2022/04/22 05:00:54;;;;;;;2.83;1.13;;;7.20;99.90;;;;;;6275764;22;20016;-84
2022/04/22 05:03:19;;;;;;;2.92;1.27;;;6.60;99.90;;;;;;6276880;22;20027;-84
2022/04/22 05:05:45;;;;;;;4.57;1.45;;;7.40;99.90;;;;;;6276910;22;20330;-85
2022/04/22 05:08:11;;;;;;;3.95;1.45;;;6.90;99.90;;;;;;6249355;22;20346;-84
2022/04/22 05:10:37;;;;;;;2.53;1.42;;;6.60;99.90;;;;;;6276144;22;20019;-84
2022/04/22 05:13:04;;;;;;;3.28;2.40;;;7.00;99.90;;;;;;6249516;22;20031;-84
2022/04/22 05:15:33;;;;;;;3.00;1.90;;;6.70;99.90;;;;;;6248591;22;20409;-85
2022/04/22 05:18:02;;;;;;;3.90;1.67;;;7.40;99.90;;;;;;6276494;22;20020;-84
2022/04/22 05:20:32;;;;;;;5.68;1.55;;;7.50;99.90;;;;;;6276198;22;20020;-84
2022/04/22 05:22:58;;;;;;;2.33;1.30;;;7.50;99.90;;;;;;6248478;22;20031;-83
2022/04/22 05:25:24;;;;;;;5.45;1.42;;;7.70;99.90;;;;;;6276577;22;20023;-86
2022/04/22 05:27:50;;;;;;;2.95;1.42;;;7.00;99.90;;;;;;6276471;22;20061;-84
2022/04/22 05:33:03;;;;;;;3.47;1.30;;;7.10;99.90;;;;;;6276033;22;20512;-85
2022/04/22 05:35:29;;;;;;;2.03;1.30;;;7.40;99.90;;;;;;6276055;22;20023;-86
2022/04/22 05:38:15;;;;;;;3.40;1.08;;;8.20;99.90;;;;;;6276341;22;20050;-85
2022/04/22 05:40:41;;;;;;;2.25;0.90;;;7.30;99.90;;;;;;6248875;22;20315;-84
2022/04/22 05:43:08;;;;;;;2.47;1.10;;;6.70;99.90;;;;;;6275616;22;20076;-85
2022/04/22 05:45:36;;;;;;;2.30;1.35;;;8.30;99.90;;;;;;6276531;22;20023;-85
2022/04/22 05:48:02;;;;;;;2.15;1.30;;;7.60;99.90;;;;;;6275645;22;20556;-85
2022/04/22 05:50:29;;;;;;;4.03;1.30;;;7.70;99.90;;;;;;6248599;22;20090;-87
2022/04/22 05:52:55;;;;;;;4.18;1.25;;;8.80;99.90;;;;;;6275745;22;20503;-87
2022/04/22 05:55:23;;;;;;;2.00;1.20;;;7.90;99.90;;;;;;6276551;22;20046;-86
2022/04/22 05:57:52;;;;;;;2.28;1.30;;;9.00;99.90;;;;;;6276558;22;20042;-86
2022/04/22 06:00:20;;;;;;;2.40;1.20;;;8.20;99.90;;;;;;6276415;22;20446;-87
2022/04/22 06:02:46;;;;;;;2.63;1.10;;;7.30;99.90;;;;;;6248804;22;20482;-85
2022/04/22 06:05:17;;;;;;;2.00;1.05;;;8.50;99.90;;;;;;6249215;22;20054;-86
2022/04/22 06:07:44;;;;;;;3.28;1.40;;;9.00;99.90;;;;;;6276229;22;20461;-86
2022/04/22 06:12:56;;;;;;;2.25;1.52;;;9.10;99.90;;;;;;6249237;22;20450;-85
2022/04/22 06:15:22;;;;;;;4.78;1.50;;;9.60;99.90;;;;;;6276579;22;20051;-86
2022/04/22 06:17:48;;;;;;;6.68;1.30;;;8.30;99.90;;;;;;6249630;22;20346;-90
2022/04/22 06:20:14;;;;;;;1.58;1.02;;;9.40;99.90;;;;;;6278789;22;20023;-88
2022/04/22 06:22:40;;;;;;;2.42;1.15;;;9.10;99.90;;;;;;6249388;22;20023;-88
2022/04/22 06:25:08;;;;;;;2.92;1.40;;;9.90;99.90;;;;;;6277812;22;20077;-85
2022/04/22 06:27:39;;;;;;;1.33;0.90;;;9.30;99.90;;;;;;6277352;22;20050;-86
2022/04/22 06:30:11;;;;;;;2.05;1.27;;;9.40;99.90;;;;;;6278201;22;20320;-85
2022/04/22 06:32:38;;;;;;;2.47;1.00;;;9.40;99.90;;;;;;6278690;22;20500;-84
2022/04/22 06:35:05;;;;;;;2.30;1.00;;;9.50;99.90;;;;;;6278969;22;20102;-84
2022/04/22 06:37:40;;;;;;;1.70;0.93;;;9.70;99.90;;;;;;6279029;22;20331;-83
2022/04/22 06:45:47;;;;;;;4.35;1.73;;;9.90;99.90;;;;;;6251610;22;20027;-84
2022/04/22 06:48:30;;;;;;;4.15;1.35;;;10.10;99.90;;;;;;6250450;22;20541;-83
2022/04/22 06:50:57;;;;;;;3.00;1.10;;;10.10;99.90;;;;;;6277857;22;20015;-85
2022/04/22 06:53:24;;;;;;;4.78;1.23;;;10.20;99.90;;;;;;6250691;22;20026;-84
2022/04/22 06:55:50;;;;;;;3.60;1.27;;;10.20;99.90;;;;;;6277511;22;20023;-85
2022/04/22 06:58:18;;;;;;;2.67;1.08;;;10.20;99.90;;;;;;6250283;22;20016;-88
2022/04/22 07:00:45;;;;;;;4.68;1.27;;;10.20;99.90;;;;;;6250555;22;20031;-86
2022/04/22 07:03:12;;;;;;;2.45;0.90;;;10.30;99.90;;;;;;6250914;22;20024;-85
2022/04/22 07:05:39;;;;;;;5.28;1.10;;;10.40;99.90;;;;;;6277313;22;20081;-86
2022/04/22 07:08:07;;;;;;;3.55;1.52;;;10.50;99.90;;;;;;6277216;22;20023;-86
2022/04/22 07:10:37;;;;;;;3.38;1.25;;;10.70;99.90;;;;;;6277839;22;20186;-86
2022/04/22 07:13:04;;;;;;;2.88;1.23;;;10.70;99.90;;;;;;6277460;22;20024;-88
2022/04/22 07:15:30;;;;;;;3.33;1.10;;;10.80;99.90;;;;;;6224948;22;20027;-86
2022/04/22 07:17:56;;;;;;;3.45;1.42;;;10.90;99.90;;;;;;6277653;22;20019;-86
2022/04/22 07:20:23;;;;;;;2.45;1.00;;;11.00;99.90;;;;;;6250768;22;20036;-88
2022/04/22 07:22:49;;;;;;;4.03;1.30;;;11.00;99.90;;;;;;6250461;22;20016;-87
2022/04/22 07:25:16;;;;;;;4.95;2.17;;;11.10;99.90;;;;;;6277280;22;20050;-87
2022/04/22 07:27:44;;;;;;;4.72;1.85;;;11.10;99.90;;;;;;6278020;22;20390;-87
2022/04/22 07:30:12;;;;;;;4.15;1.30;;;11.20;99.90;;;;;;6250119;22;20095;-87
2022/04/22 07:32:38;;;;;;;2.83;1.20;;;11.10;99.90;;;;;;6250542;22;20029;-89
2022/04/22 07:35:11;;;;;;;2.65;1.15;;;11.20;99.90;;;;;;6278063;22;20055;-88
2022/04/22 07:37:42;;;;;;;4.28;1.42;;;11.30;99.90;;;;;;6250191;22;20027;-87
2022/04/22 07:40:10;;;;;;;3.42;1.20;;;11.30;99.90;;;;;;6250661;22;20020;-89
2022/04/22 07:42:36;;;;;;;4.53;1.33;;;11.50;99.90;;;;;;6250349;22;20023;-87
2022/04/22 07:47:48;;;;;;;;;;;11.60;99.90;;;;;;6250766;22;20022;-85
2022/04/22 07:50:15;;;;;;;1.92;1.20;;;11.80;99.90;;;;;;6250098;22;20009;-87
2022/04/22 07:52:44;;;;;;;5.30;1.00;;;11.80;99.90;;;;;;6277316;22;20087;-84
2022/04/22 07:55:13;;;;;;;4.78;1.08;;;12.00;99.90;;;;;;6277207;22;20022;-86
2022/04/22 07:57:42;;;;;;;2.15;0.90;;;12.00;99.90;;;;;;6277368;22;20051;-84
2022/04/22 08:00:10;;;;;;;3.33;0.88;;;12.10;99.90;;;;;;6250520;22;20072;-84
2022/04/22 08:02:40;;;;;;;6.35;1.90;;;12.20;99.90;;;;;;6277350;22;20020;-84
2022/04/22 08:05:12;;;;;;;2.97;1.10;;;12.40;99.90;;;;;;6277326;22;20016;-85
2022/04/22 08:07:38;;;;;;;3.10;1.20;;;12.60;99.90;;;;;;6250144;22;20027;-84
2022/04/22 08:10:05;;;;;;;1.75;1.00;;;12.70;99.90;;;;;;6277415;22;20046;-87
2022/04/22 08:12:31;;;;;;;2.30;1.05;;;12.70;99.90;;;;;;6276466;22;20030;-86
2022/04/22 08:14:58;;;;;;;2.33;1.10;;;12.80;99.90;;;;;;6276960;22;20019;-87
2022/04/22 08:17:24;;;;;;;2.10;1.10;;;12.80;99.90;;;;;;6250395;22;20092;-87
2022/04/22 08:19:49;;;;;;;5.43;1.30;;;13.00;99.90;;;;;;6249934;22;20098;-85
2022/04/22 08:22:15;;;;;;;3.47;1.40;;;13.00;99.90;;;;;;6249403;22;20046;-84
2022/04/22 08:24:41;;;;;;;2.03;1.23;;;13.20;99.90;;;;;;6276881;22;20012;-88
2022/04/22 08:27:07;;;;;;;2.30;1.00;;;13.30;99.90;;;;;;6249734;22;20026;-86
2022/04/22 08:29:33;;;;;;;2.85;1.08;;;13.40;99.90;;;;;;6277041;22;20020;-87
2022/04/22 08:31:59;;;;;;;1.50;0.90;;;13.40;99.90;;;;;;6276500;22;20016;-85
2022/04/22 08:34:24;;;;;;;5.57;1.23;;;13.40;99.90;;;;;;6277110;22;20015;-85
2022/04/22 08:36:50;;;;;;;3.05;1.42;;;13.50;99.90;;;;;;6277121;22;20079;-85
2022/04/22 08:39:16;;;;;;;2.97;0.85;;;13.70;99.90;;;;;;6277181;22;20018;-90
2022/04/22 08:41:42;;;;;;;2.88;1.00;;;13.70;99.90;;;;;;6249718;22;20015;-87
2022/04/22 08:44:12;;;;;;;3.13;1.25;;;13.90;99.90;;;;;;6249638;22;20020;-85
2022/04/22 08:52:09;;;;;;;2.35;1.15;;;14.10;99.90;;;;;;6276737;22;20350;-86
2022/04/22 08:54:38;;;;;;;3.55;0.90;;;14.20;99.90;;;;;;6249459;22;20332;-85
2022/04/22 08:57:03;;;;;;;3.30;0.80;;;14.20;99.90;;;;;;6249610;22;20022;-86
2022/04/22 08:59:29;;;;;;;4.88;1.23;;;14.40;99.90;;;;;;6276670;22;20055;-85
2022/04/22 09:01:56;;;;;;;2.42;0.85;;;14.40;99.90;;;;;;6276843;22;20020;-85
2022/04/22 09:04:22;;;;;;;2.15;1.05;;;14.50;99.90;;;;;;6276656;22;20037;-85
2022/04/22 09:06:50;;;;;;;1.92;1.00;;;14.60;99.90;;;;;;6276714;22;20462;-85
2022/04/22 09:09:18;;;;;;;0.93;0.63;;;14.70;99.90;;;;;;6248984;22;20065;-86
2022/04/22 09:11:44;;;;;;;2.58;1.02;;;14.70;99.90;;;;;;6276196;22;20397;-85
2022/04/22 09:14:15;;;;;;;3.35;1.20;;;14.80;99.90;;;;;;6276486;22;20020;-85
2022/04/22 09:16:41;;;;;;;2.25;0.98;;;14.80;99.90;;;;;;6277181;22;20357;-86
2022/04/22 09:19:07;;;;;;;2.95;0.90;;;14.90;99.90;;;;;;6278284;22;20047;-85
2022/04/22 09:21:33;;;;;;;2.47;0.90;;;15.00;99.90;;;;;;6249470;22;20024;-85
2022/04/22 09:24:15;;;;;;;2.05;0.90;;;15.20;99.90;;;;;;6276756;22;20023;-85
2022/04/22 09:26:41;;;;;;;3.00;1.00;;;15.20;99.90;;;;;;6276741;22;20042;-85
2022/04/22 09:29:10;;;;;;;1.40;0.90;;;15.30;99.90;;;;;;6249309;22;20454;-85
2022/04/22 09:31:49;;;;;;;1.75;0.80;;;15.60;99.90;;;;;;6275786;22;20023;-85
2022/04/22 09:34:31;;;;;;;5.13;1.20;;;15.70;99.90;;;;;;6276644;22;20019;-85
2022/04/22 09:42:53;;;;;;;2.58;0.80;;;15.80;99.90;;;;;;6275962;22;20031;-85
2022/04/22 09:45:19;;;;;;;3.22;0.82;;;15.80;99.90;;;;;;6275834;22;20020;-85
2022/04/22 09:47:57;;;;;;;3.42;0.73;;;16.00;99.90;;;;;;6276632;22;20028;-85
2022/04/22 09:50:40;;;;;;;1.30;0.70;;;16.00;99.90;;;;;;6249572;22;20031;-85
2022/04/22 09:53:06;;;;;;;3.42;1.00;;;16.00;99.90;;;;;;6248912;22;20024;-85
2022/04/22 09:55:36;;;;;;;3.15;1.27;;;16.00;99.90;;;;;;6274483;22;20358;-86
2022/04/22 09:58:02;;;;;;;1.75;0.90;;;16.00;99.90;;;;;;6249768;22;20085;-86
2022/04/22 10:00:44;;;;;;;1.65;0.90;;;16.00;99.90;;;;;;6249005;22;20458;-86
2022/04/22 10:03:13;;;;;;;5.70;1.13;;;16.20;99.90;;;;;;6280056;22;20438;-85
2022/04/22 10:05:39;;;;;;;3.10;0.93;;;16.10;99.90;;;;;;6251097;22;20319;-86
2022/04/22 10:08:05;;;;;;;2.35;0.95;;;16.20;99.90;;;;;;6251203;22;20034;-85
2022/04/22 10:10:36;;;;;;;3.45;1.00;;;16.20;99.90;;;;;;6278395;22;20016;-86
2022/04/22 10:13:04;;;;;;;4.25;1.13;;;16.20;99.90;;;;;;6250769;22;20027;-86
2022/04/22 10:15:35;;;;;;;1.88;0.90;;;16.40;99.90;;;;;;6251113;22;20046;-85
2022/04/22 10:18:01;;;;;;;2.28;1.00;;;16.50;99.90;;;;;;6278019;22;20055;-85
2022/04/22 10:20:29;;;;;;;2.65;0.90;;;16.50;99.90;;;;;;6278415;22;20020;-86
2022/04/22 10:22:57;;;;;;;1.80;1.13;;;16.60;99.90;;;;;;6278323;22;20024;-86
2022/04/22 10:25:25;;;;;;;1.95;0.85;;;16.40;99.90;;;;;;6251936;22;20319;-85
2022/04/22 10:27:54;;;;;;;1.38;0.90;;;16.50;99.90;;;;;;6278033;22;20492;-86
2022/04/22 10:30:24;;;;;;;2.15;1.10;;;16.70;99.90;;;;;;6277864;22;20422;-85
2022/04/22 10:32:50;;;;;;;2.75;1.05;;;16.50;99.90;;;;;;6278022;22;20024;-85
2022/04/22 10:35:16;;;;;;;2.00;1.10;;;16.60;99.90;;;;;;6278307;22;20026;-85
2022/04/22 10:37:42;;;;;;;7.97;1.30;;;16.80;99.90;;;;;;6277814;22;20025;-86
2022/04/22 10:40:35;;;;;;;3.25;1.08;;;16.80;99.90;;;;;;6279420;22;20024;-85
2022/04/22 10:43:02;;;;;;;3.75;1.10;;;16.90;99.90;;;;;;6272843;22;20023;-85
2022/04/22 10:48:27;;;;;;;3.53;1.10;;;17.00;99.90;;;;;;6277725;22;20027;-85
2022/04/22 10:50:58;;;;;;;2.28;1.10;;;17.10;99.60;;;;;;6278169;22;20016;-84
2022/04/22 10:53:27;;;;;;;2.85;1.10;;;17.10;99.90;;;;;;6251012;22;20020;-88
2022/04/22 10:56:13;;;;;;;2.05;1.25;;;17.20;99.80;;;;;;6278394;22;20068;-85
2022/04/22 10:58:38;;;;;;;1.65;0.90;;;17.20;99.40;;;;;;6250216;22;20019;-85
2022/04/22 11:01:04;;;;;;;3.15;1.15;;;17.20;99.00;;;;;;6277485;22;20042;-84
2022/04/22 11:03:34;;;;;;;3.55;0.98;;;17.30;99.60;;;;;;6277833;22;20081;-90
2022/04/22 11:06:05;;;;;;;4.40;1.40;;;17.30;98.80;;;;;;6250124;22;20023;-89
2022/04/22 11:08:37;;;;;;;3.72;0.88;;;17.40;99.10;;;;;;6277923;22;20038;-85
2022/04/22 11:11:17;;;;;;;3.72;0.90;;;17.50;99.10;;;;;;6277299;22;20015;-85
2022/04/22 11:13:48;;;;;;;4.32;1.55;;;17.60;99.70;;;;;;6276744;22;20024;-86
2022/04/22 11:16:32;;;;;;;2.53;1.20;;;17.60;99.60;;;;;;6278420;22;20046;-91
2022/04/22 11:19:17;;;;;;;5.22;1.38;;;17.60;98.80;;;;;;6250605;22;20394;-91
2022/04/22 11:21:46;;;;;;;3.17;1.23;;;17.70;99.30;;;;;;6250446;22;20026;-89
2022/04/22 11:24:32;;;;;;;3.45;1.60;;;17.70;98.90;;;;;;6249950;22;20580;-85
2022/04/22 11:27:12;;;;;;;3.20;1.33;;;17.70;98.70;;;;;;6278644;22;20028;-85
2022/04/22 11:29:39;;;;;;;4.03;1.33;;;18.00;98.50;;;;;;6277216;22;20094;-86
2022/04/22 11:32:17;;;;;;;1.67;1.23;;;17.80;99.10;;;;;;6276673;22;20089;-83
2022/04/22 11:35:13;;;;;;;4.05;1.02;;;17.90;98.30;;;;;;6278527;22;20026;-87
2022/04/22 11:37:42;;;;;;;3.38;1.42;;;18.10;98.00;;;;;;6251455;22;20050;-90
2022/04/22 11:40:18;;;;;;;3.30;1.25;;;18.10;97.80;;;;;;6225810;22;20350;-91
2022/04/22 11:42:43;;;;;;;;;;;17.90;98.00;;;;;;6250813;22;20267;-89
2022/04/22 11:45:16;;;;;;;;;;;17.90;98.60;;;;;;6251114;22;19934;-91
2022/04/22 11:47:42;;;;;;;2.75;1.40;;;18.00;97.50;;;;;;6250206;22;20277;-90
2022/04/22 11:50:44;;;;;;;1.20;0.82;;;18.00;97.60;;;;;;6224900;22;20019;-93
2022/04/22 11:55:48;;;;;;;2.88;1.35;;;18.20;97.10;;;;;;6253254;22;20011;-88
2022/04/22 11:58:20;;;;;;;4.75;1.75;;;18.30;96.90;;;;;;6308489;22;20023;-84
2022/04/22 12:06:17;;;;;;;3.03;1.52;;;18.30;96.30;;;;;;6286022;22;20114;-89
2022/04/22 12:09:05;;;;;;;3.30;1.17;;;18.30;96.60;;;;;;6286080;22;20019;-86
2022/04/22 12:11:42;;;;;;;3.33;1.33;;;18.30;97.20;;;;;;6293031;22;20023;-95
2022/04/22 12:14:24;;;;;;;4.03;1.60;;;18.50;97.60;;;;;;6313576;22;20061;-90
2022/04/22 12:17:04;;;;;;;6.82;1.50;;;18.50;96.20;;;;;;6309930;22;20057;-92
2022/04/22 12:19:30;;;;;;;3.65;1.77;;;18.50;96.00;;;;;;6278353;22;20019;-92
2022/04/22 12:21:58;;;;;;;3.85;1.52;;;18.60;96.90;;;;;;6308661;22;20084;-90
2022/04/22 12:24:32;;;;;;;2.08;1.13;;;18.60;96.30;;;;;;6254168;22;20023;-93
2022/04/22 12:31:09;;;;;;;4.03;1.50;;;18.80;96.10;;;;;;6308696;22;20880;-93
2022/04/22 12:33:35;;;;;;;3.85;1.20;;;18.90;96.20;;;;;;6281665;22;20031;-95
2022/04/22 12:36:07;;;;;;;2.83;1.30;;;19.10;95.50;;;;;;6315896;22;20315;-93
2022/04/22 12:38:36;;;;;;;6.88;1.35;;;19.10;95.90;;;;;;6286389;22;20446;-95
2022/04/22 12:41:03;;;;;;;3.15;1.35;;;19.20;95.60;;;;;;6283232;22;20031;-94
2022/04/22 12:54:33;;;;;;;4.47;1.60;;;19.40;95.70;;;;;;6309484;22;20531;-91
2022/04/22 12:56:59;;;;;;;2.03;1.40;;;19.30;95.20;;;;;;6313831;22;20037;-94
2022/04/22 12:59:43;;;;;;;2.38;1.35;;;19.40;95.30;;;;;;6312380;22;20043;-94
2022/04/22 13:02:13;;;;;;;2.90;1.30;;;19.50;95.20;;;;;;6312290;22;20043;-94
2022/04/22 13:04:59;;;;;;;3.35;1.60;;;19.60;95.30;;;;;;6285611;22;20092;-94
2022/04/22 13:07:29;;;;;;;2.63;1.27;;;19.70;95.70;;;;;;6282051;22;20019;-91
2022/04/22 14:00:39;;;;;;;3.42;1.73;;;20.20;97.50;;;;;;6229052;22;20022;-84
2022/04/22 14:03:08;;;;;;;4.15;2.13;;;20.20;95.80;;;;;;6182073;23;20032;-86
2022/04/22 14:05:34;;;;;;;3.80;1.90;;;20.20;93.40;;;;;;6181925;23;20024;-86
2022/04/22 14:07:59;;;;;;;4.72;2.17;;;20.10;95.10;;;;;;6157123;23;20106;-89
2022/04/22 14:10:26;;;;;;;2.47;1.70;;;19.90;96.00;;;;;;6181902;23;20050;-85
2022/04/22 14:12:52;;;;;;;5.40;2.13;;;19.90;96.60;;;;;;6132581;23;20025;-87
2022/04/22 14:15:19;;;;;;;5.45;1.58;;;19.60;96.80;;;;;;6158059;23;20103;-88
2022/04/22 14:17:45;;;;;;;5.90;1.60;;;19.70;95.60;;;;;;6158161;23;20017;-86
2022/04/22 14:20:12;;;;;;;3.63;1.60;;;19.90;94.80;;;;;;6182815;23;20096;-86
2022/04/22 14:22:38;;;;;;;2.40;1.48;;;20.00;92.40;;;;;;6157728;23;20021;-89
2022/04/22 14:25:04;;;;;;;2.92;1.45;;;19.90;91.80;;;;;;6183348;23;20025;-88
2022/04/22 14:27:30;;;;;;;5.57;2.05;;;19.70;91.60;;;;;;6158132;23;20405;-86
2022/04/22 14:29:56;;;;;;;2.95;1.23;;;19.20;92.20;;;;;;6157775;23;20022;-84
2022/04/22 14:32:22;;;;;;;5.63;1.70;;;19.00;92.80;;;;;;6182235;23;20101;-86
2022/04/22 14:34:47;;;;;;;3.10;1.20;;;19.20;93.50;;;;;;6158648;23;20029;-87
2022/04/22 14:37:13;;;;;;;3.60;1.63;;;19.40;93.50;;;;;;6183768;23;20021;-89
2022/04/22 14:39:39;;;;;;;4.18;1.63;;;19.30;92.10;;;;;;6260495;22;20023;-87
2022/04/22 14:42:05;;;;;;;6.03;2.22;;;19.30;94.10;;;;;;6281039;22;20027;-86
2022/04/22 14:44:30;;;;;;;4.00;1.95;;;19.20;96.70;;;;;;6307530;22;20016;-87
2022/04/22 14:46:58;;;;;;;7.43;1.67;;;19.00;97.70;;;;;;6279179;22;20053;-85
2022/04/22 14:49:24;;;;;;;3.00;2.00;;;19.00;97.00;;;;;;6308805;22;20011;-87
2022/04/22 14:51:51;;;;;;;3.05;2.13;;;18.70;97.60;;;;;;6308764;22;20015;-84
2022/04/22 14:54:17;;;;;;;4.15;1.08;;;18.50;95.60;;;;;;6280994;22;20019;-84
2022/04/22 14:56:43;;;;;;;4.05;1.30;;;18.50;95.40;;;;;;6308563;22;20455;-84
2022/04/22 14:59:10;;;;;;;5.20;1.90;;;18.40;96.40;;;;;;6308449;22;20484;-84
2022/04/22 15:01:36;;;;;;;1.98;1.17;;;18.20;96.30;;;;;;6307466;22;20405;-84